Time;durP1;ratioP1;P1;durP2;ratioP2;P2;SDS_P1;SDS_P2;PMS_P1;PMS_P2;Temp;Humidity;BMP_temperature;BMP_pressure;BME280_temperature;BME280_humidity;BME280_pressure;Samples;Min_cycle;Max_cycle;Signal;HPM_P1;HPM_P2
2022/03/12 00:01:16;;;;;;;15.15;2.22;;;9.20;99.90;;;;;;5015868;28;20059;-61
2022/03/12 00:03:43;;;;;;;17.45;2.80;;;9.20;99.90;;;;;;5004963;28;20098;-62
2022/03/12 00:06:10;;;;;;;8.15;1.60;;;9.10;99.90;;;;;;5015965;28;20061;-62
2022/03/12 00:08:44;;;;;;;6.97;1.33;;;9.10;99.90;;;;;;4999270;28;20031;-61
2022/03/12 00:11:12;;;;;;;11.48;2.03;;;9.10;99.90;;;;;;5015869;28;20054;-61
2022/03/12 00:13:39;;;;;;;8.07;1.55;;;9.10;99.90;;;;;;5015578;28;20030;-58
2022/03/12 00:16:10;;;;;;;10.10;2.40;;;9.10;99.90;;;;;;5034350;28;20030;-62
2022/03/12 00:18:38;;;;;;;12.13;2.13;;;9.10;99.90;;;;;;5019513;28;20045;-61
2022/03/12 00:21:06;;;;;;;9.70;1.73;;;9.00;99.90;;;;;;5003113;28;20034;-61
2022/03/12 00:23:33;;;;;;;3.20;1.15;;;9.00;99.90;;;;;;5018674;28;20072;-62
2022/03/12 00:26:00;;;;;;;12.98;2.42;;;9.00;99.90;;;;;;5019340;28;20065;-62
2022/03/12 00:28:27;;;;;;;5.22;1.38;;;9.00;99.90;;;;;;5019447;28;20042;-61
2022/03/12 00:30:54;;;;;;;9.55;1.90;;;8.90;99.90;;;;;;5019704;28;20073;-61
2022/03/12 00:33:21;;;;;;;11.73;1.67;;;9.00;99.90;;;;;;5034849;28;20056;-62
2022/03/12 00:35:49;;;;;;;8.95;1.30;;;9.00;99.90;;;;;;5018055;28;20026;-61
2022/03/12 00:38:16;;;;;;;10.68;1.85;;;9.00;99.90;;;;;;5019331;28;20039;-62
2022/03/12 00:40:43;;;;;;;11.27;2.45;;;9.00;99.90;;;;;;5018826;28;20034;-62
2022/03/12 00:43:11;;;;;;;11.23;2.72;;;9.00;99.90;;;;;;5019552;28;20053;-61
2022/03/12 00:45:38;;;;;;;12.90;2.15;;;9.00;99.90;;;;;;5024740;28;20030;-61
2022/03/12 00:48:06;;;;;;;10.18;1.67;;;9.00;99.90;;;;;;4999875;28;20050;-61
2022/03/12 00:50:53;;;;;;;12.10;1.70;;;9.00;99.90;;;;;;5018434;28;20058;-62
2022/03/12 00:53:20;;;;;;;10.90;1.65;;;9.00;99.90;;;;;;5019342;28;20034;-62
2022/03/12 00:55:47;;;;;;;8.00;1.58;;;9.10;99.90;;;;;;5025873;28;20038;-61
2022/03/12 00:58:13;;;;;;;8.05;3.08;;;9.00;99.90;;;;;;5019480;28;20031;-62
2022/03/12 01:00:40;;;;;;;10.18;2.03;;;9.00;99.90;;;;;;5002025;28;20065;-62
2022/03/12 01:03:07;;;;;;;9.38;1.98;;;9.00;99.90;;;;;;5018233;28;20030;-62
2022/03/12 01:05:55;;;;;;;10.93;1.45;;;9.00;99.90;;;;;;5018829;28;20098;-63
2022/03/12 01:08:23;;;;;;;7.45;1.45;;;9.00;99.90;;;;;;4996053;28;20023;-62
2022/03/12 01:10:52;;;;;;;10.82;1.95;;;9.00;99.90;;;;;;4995920;28;20026;-61
2022/03/12 01:13:21;;;;;;;14.95;1.60;;;9.00;99.90;;;;;;5002285;28;20073;-61
2022/03/12 01:15:48;;;;;;;9.93;1.67;;;9.00;99.90;;;;;;5018386;28;20401;-62
2022/03/12 01:18:17;;;;;;;9.20;1.92;;;9.00;99.90;;;;;;5018711;28;20038;-61
2022/03/12 01:20:44;;;;;;;15.10;1.55;;;9.00;99.90;;;;;;5029120;28;20101;-61
2022/03/12 01:23:13;;;;;;;10.43;1.58;;;9.00;99.90;;;;;;4997982;28;20030;-61
2022/03/12 01:25:44;;;;;;;10.73;1.90;;;9.10;99.90;;;;;;4986160;28;20068;-61
2022/03/12 01:28:11;;;;;;;9.38;1.75;;;9.10;99.90;;;;;;5008486;28;20030;-61
2022/03/12 01:30:38;;;;;;;10.40;1.73;;;9.00;99.90;;;;;;5018514;28;20054;-60
2022/03/12 01:33:05;;;;;;;10.07;1.58;;;9.10;99.90;;;;;;5018226;28;20140;-61
2022/03/12 01:35:33;;;;;;;12.35;1.75;;;9.10;99.90;;;;;;5018311;28;20042;-62
2022/03/12 01:38:01;;;;;;;12.23;1.50;;;9.00;99.90;;;;;;5025328;28;20193;-62
2022/03/12 01:40:28;;;;;;;7.80;1.88;;;9.00;99.90;;;;;;5018375;28;20102;-58
2022/03/12 01:42:55;;;;;;;19.27;2.33;;;9.10;99.90;;;;;;5001348;28;20085;-58
2022/03/12 01:45:27;;;;;;;9.45;2.78;;;9.10;99.90;;;;;;5018538;28;20034;-61
2022/03/12 01:47:55;;;;;;;12.07;2.70;;;9.10;99.90;;;;;;5000740;28;20027;-60
2022/03/12 01:50:30;;;;;;;14.63;2.15;;;9.00;99.90;;;;;;5018420;28;20030;-61
2022/03/12 01:52:59;;;;;;;18.77;5.60;;;9.10;99.90;;;;;;5017746;28;20066;-61
2022/03/12 01:55:30;;;;;;;7.05;1.70;;;9.00;99.90;;;;;;5001593;28;20041;-64
2022/03/12 01:58:01;;;;;;;10.70;2.17;;;9.00;99.90;;;;;;5017494;28;20034;-61
2022/03/12 02:00:43;;;;;;;11.85;1.80;;;9.00;99.90;;;;;;5018048;28;20064;-61
2022/03/12 02:03:11;;;;;;;4.85;1.50;;;9.00;99.90;;;;;;5017724;28;20196;-60
2022/03/12 02:05:38;;;;;;;7.90;1.90;;;9.00;99.90;;;;;;5018028;28;20038;-61
2022/03/12 02:08:05;;;;;;;14.80;2.20;;;9.00;99.90;;;;;;5000860;28;20116;-61
2022/03/12 02:10:33;;;;;;;18.00;2.92;;;9.00;99.90;;;;;;5017966;28;20058;-61
2022/03/12 02:13:00;;;;;;;9.75;1.50;;;9.00;99.90;;;;;;5017383;28;20038;-61
2022/03/12 02:15:27;;;;;;;9.40;2.47;;;9.10;99.90;;;;;;5017985;28;20090;-61
2022/03/12 02:17:54;;;;;;;11.32;1.90;;;9.10;99.90;;;;;;5017476;28;20041;-61
2022/03/12 02:20:21;;;;;;;11.50;2.15;;;9.00;99.90;;;;;;5017660;28;20030;-61
2022/03/12 02:22:53;;;;;;;11.50;3.75;;;9.00;99.90;;;;;;5000238;28;20058;-62
2022/03/12 02:25:25;;;;;;;17.08;3.53;;;9.00;99.90;;;;;;5025204;28;20054;-61
2022/03/12 02:27:52;;;;;;;7.47;2.00;;;9.00;99.90;;;;;;5016757;28;20026;-62
2022/03/12 02:30:19;;;;;;;10.00;2.30;;;9.00;99.90;;;;;;5017537;28;20039;-62
2022/03/12 02:32:45;;;;;;;13.52;2.22;;;9.00;99.90;;;;;;5017231;28;20043;-61
2022/03/12 02:35:13;;;;;;;14.25;1.90;;;9.00;99.90;;;;;;5011534;28;20030;-60
2022/03/12 02:37:47;;;;;;;16.70;3.08;;;8.90;99.90;;;;;;5016880;28;20034;-61
2022/03/12 02:40:14;;;;;;;11.82;2.15;;;8.80;99.90;;;;;;5017472;28;20041;-62
2022/03/12 02:42:41;;;;;;;8.63;2.33;;;8.80;99.90;;;;;;5000407;28;20045;-62
2022/03/12 02:45:08;;;;;;;18.48;3.95;;;8.70;99.90;;;;;;5017042;28;20053;-61
2022/03/12 02:47:36;;;;;;;8.43;2.35;;;8.70;99.90;;;;;;5017102;28;20089;-61
2022/03/12 02:50:07;;;;;;;9.77;1.85;;;8.70;99.90;;;;;;5016873;28;20046;-61
2022/03/12 02:52:41;;;;;;;15.60;2.75;;;8.70;99.90;;;;;;5017173;28;20039;-60
2022/03/12 02:55:13;;;;;;;18.17;2.35;;;8.70;99.90;;;;;;4989576;28;20058;-61
2022/03/12 02:57:42;;;;;;;20.23;2.10;;;8.60;99.90;;;;;;5019056;28;20065;-60
2022/03/12 03:00:12;;;;;;;15.88;2.15;;;8.60;99.90;;;;;;5000213;28;20031;-60
2022/03/12 03:02:39;;;;;;;16.75;1.90;;;8.60;99.90;;;;;;5017038;28;20207;-61
2022/03/12 03:05:30;;;;;;;11.30;1.95;;;8.60;99.90;;;;;;5007076;28;20082;-59
2022/03/12 03:07:58;;;;;;;14.55;1.40;;;8.60;99.90;;;;;;4997317;28;20054;-60
2022/03/12 03:10:35;;;;;;;13.82;1.77;;;8.60;99.90;;;;;;4998560;28;20126;-61
2022/03/12 03:13:18;;;;;;;5.90;1.27;;;8.50;99.90;;;;;;4997334;28;20035;-62
2022/03/12 03:16:06;;;;;;;10.35;1.40;;;8.50;99.90;;;;;;5016322;28;20050;-60
2022/03/12 03:18:35;;;;;;;7.22;2.78;;;8.50;99.90;;;;;;5009598;28;20026;-60
2022/03/12 03:21:03;;;;;;;9.40;1.63;;;8.50;99.90;;;;;;5019595;28;20038;-61
2022/03/12 03:23:31;;;;;;;4.75;1.15;;;8.50;99.90;;;;;;5016646;28;20122;-61
2022/03/12 03:25:59;;;;;;;13.35;2.92;;;8.50;99.90;;;;;;5016124;28;20105;-60
2022/03/12 03:28:26;;;;;;;9.52;1.40;;;8.60;99.90;;;;;;4997315;28;20050;-60
2022/03/12 03:30:53;;;;;;;9.98;1.52;;;8.60;99.90;;;;;;4996732;28;20030;-61
2022/03/12 03:33:21;;;;;;;9.07;1.30;;;8.60;99.90;;;;;;5016256;28;20072;-61
2022/03/12 03:35:49;;;;;;;10.05;1.52;;;8.60;99.90;;;;;;5025758;28;20037;-61
2022/03/12 03:38:15;;;;;;;11.23;1.48;;;8.60;99.90;;;;;;4999878;28;20033;-61
2022/03/12 03:40:43;;;;;;;12.80;1.13;;;8.60;99.90;;;;;;5016006;28;20109;-61
2022/03/12 03:43:14;;;;;;;10.98;1.52;;;8.60;99.90;;;;;;4999727;28;20057;-61
2022/03/12 03:45:45;;;;;;;9.70;2.22;;;8.70;99.90;;;;;;5016176;28;20057;-61
2022/03/12 03:48:14;;;;;;;13.00;2.22;;;8.70;99.90;;;;;;4976994;28;20098;-62
2022/03/12 03:50:42;;;;;;;6.72;1.65;;;8.70;99.90;;;;;;4999683;28;20049;-61
2022/03/12 03:53:09;;;;;;;7.32;1.55;;;8.70;99.90;;;;;;4984142;28;20062;-61
2022/03/12 03:55:36;;;;;;;17.40;1.83;;;8.70;99.90;;;;;;5007474;28;20030;-61
2022/03/12 03:58:03;;;;;;;8.05;2.08;;;8.70;99.90;;;;;;4992721;28;20026;-61
2022/03/12 04:00:33;;;;;;;13.27;1.70;;;8.70;99.90;;;;;;5019728;28;20038;-61
2022/03/12 04:03:04;;;;;;;9.13;1.63;;;8.60;99.90;;;;;;5018155;28;20040;-61
2022/03/12 04:05:32;;;;;;;9.48;2.05;;;8.70;99.90;;;;;;5003275;28;20112;-60
2022/03/12 04:08:00;;;;;;;10.77;1.55;;;8.70;99.90;;;;;;5016404;28;20054;-62
2022/03/12 04:10:30;;;;;;;10.98;1.45;;;8.70;99.90;;;;;;5035581;28;20057;-61
2022/03/12 04:12:57;;;;;;;15.15;1.77;;;8.60;99.90;;;;;;5006913;28;20030;-61
2022/03/12 04:15:24;;;;;;;9.48;1.83;;;8.60;99.90;;;;;;5019548;28;20066;-61
2022/03/12 04:17:51;;;;;;;10.18;1.60;;;8.60;99.90;;;;;;5018887;28;20030;-61
2022/03/12 04:20:19;;;;;;;13.55;1.73;;;8.60;99.90;;;;;;5019809;28;20034;-62
2022/03/12 04:22:47;;;;;;;12.20;3.47;;;8.60;99.90;;;;;;5019314;28;20113;-61
2022/03/12 04:25:14;;;;;;;19.52;3.67;;;8.60;99.90;;;;;;4983489;28;20034;-61
2022/03/12 04:27:44;;;;;;;6.05;1.40;;;8.60;99.90;;;;;;5004164;28;20045;-59
2022/03/12 04:30:12;;;;;;;14.57;1.60;;;8.60;99.90;;;;;;5017484;28;20026;-61
2022/03/12 04:32:39;;;;;;;9.02;1.42;;;8.50;99.90;;;;;;5019234;28;20030;-61
2022/03/12 04:35:07;;;;;;;3.97;1.00;;;8.50;99.90;;;;;;5019388;28;20565;-60
2022/03/12 04:37:35;;;;;;;6.32;1.10;;;8.50;99.90;;;;;;5018738;28;20030;-60
2022/03/12 04:40:11;;;;;;;5.13;1.63;;;8.50;99.90;;;;;;5019283;28;20066;-60
2022/03/12 04:42:40;;;;;;;6.28;0.77;;;8.50;99.90;;;;;;5019134;28;20027;-61
2022/03/12 04:45:08;;;;;;;12.15;2.38;;;8.40;99.90;;;;;;5019116;28;20035;-61
2022/03/12 04:47:38;;;;;;;12.27;1.40;;;8.40;99.90;;;;;;5001627;28;20026;-61
2022/03/12 04:50:05;;;;;;;11.50;1.33;;;8.40;99.90;;;;;;5018988;28;20035;-61
2022/03/12 04:52:32;;;;;;;3.38;0.80;;;8.40;99.90;;;;;;5018933;28;20062;-61
2022/03/12 04:54:59;;;;;;;6.35;1.17;;;8.50;99.90;;;;;;5019205;28;20028;-62
2022/03/12 04:57:25;;;;;;;9.80;1.73;;;8.50;99.90;;;;;;5001940;28;20030;-61
2022/03/12 04:59:52;;;;;;;4.25;1.00;;;8.50;99.90;;;;;;5012196;28;20031;-62
2022/03/12 05:02:19;;;;;;;12.43;2.38;;;8.50;99.90;;;;;;5001487;28;20030;-62
2022/03/12 05:04:46;;;;;;;5.75;0.90;;;8.50;99.90;;;;;;5018682;28;20067;-62
2022/03/12 05:07:13;;;;;;;6.53;1.45;;;8.50;99.90;;;;;;5018993;28;20030;-60
2022/03/12 05:09:40;;;;;;;9.15;1.17;;;8.50;99.90;;;;;;5018730;28;20043;-60
2022/03/12 05:12:08;;;;;;;9.02;1.63;;;8.50;99.90;;;;;;5018761;28;20038;-61
2022/03/12 05:14:35;;;;;;;8.55;1.48;;;8.50;99.90;;;;;;5018274;28;20146;-61
2022/03/12 05:17:08;;;;;;;8.68;2.00;;;8.50;99.90;;;;;;4999326;28;20153;-61
2022/03/12 05:19:36;;;;;;;6.32;1.33;;;8.50;99.90;;;;;;5015486;28;20050;-62
2022/03/12 05:22:03;;;;;;;11.75;1.38;;;8.50;99.90;;;;;;5018449;28;20057;-60
2022/03/12 05:24:31;;;;;;;5.55;0.75;;;8.50;99.90;;;;;;5027296;28;20065;-60
2022/03/12 05:26:59;;;;;;;5.65;1.40;;;8.50;99.90;;;;;;5018731;28;20031;-61
2022/03/12 05:29:26;;;;;;;3.10;0.98;;;8.50;99.90;;;;;;5018122;28;20050;-60
2022/03/12 05:31:53;;;;;;;8.40;1.08;;;8.50;99.90;;;;;;5018340;28;20081;-62
2022/03/12 05:34:22;;;;;;;5.88;1.10;;;8.50;99.90;;;;;;5006331;28;20035;-62
2022/03/12 05:36:49;;;;;;;9.15;1.38;;;8.50;99.90;;;;;;5001186;28;20036;-62
2022/03/12 05:39:17;;;;;;;8.45;1.40;;;8.50;99.90;;;;;;5017946;28;20034;-61
2022/03/12 05:41:44;;;;;;;5.88;1.25;;;8.50;99.90;;;;;;5027265;28;20073;-62
2022/03/12 05:44:14;;;;;;;7.78;0.90;;;8.50;99.90;;;;;;5017937;28;20034;-61
2022/03/12 05:46:41;;;;;;;8.23;1.05;;;8.50;99.90;;;;;;5017762;28;20102;-61
2022/03/12 05:49:09;;;;;;;10.77;1.67;;;8.40;99.90;;;;;;5017839;28;20061;-62
2022/03/12 05:51:36;;;;;;;6.90;2.10;;;8.40;99.90;;;;;;5017784;28;20074;-61
2022/03/12 05:54:03;;;;;;;10.10;1.65;;;8.40;99.90;;;;;;5017540;28;20030;-63
2022/03/12 05:56:30;;;;;;;11.50;1.55;;;8.40;99.90;;;;;;5001345;28;20030;-61
2022/03/12 05:58:57;;;;;;;12.77;1.55;;;8.40;99.90;;;;;;5018208;28;20050;-61
2022/03/12 06:01:24;;;;;;;6.07;1.30;;;8.30;99.90;;;;;;5001038;28;20034;-62
2022/03/12 06:03:51;;;;;;;13.80;1.58;;;8.30;99.90;;;;;;5017842;28;20030;-62
2022/03/12 06:06:18;;;;;;;13.25;2.17;;;8.20;99.90;;;;;;5017559;28;20057;-61
2022/03/12 06:08:45;;;;;;;11.52;1.55;;;8.20;99.90;;;;;;4998383;28;20035;-60
2022/03/12 06:11:15;;;;;;;19.17;1.65;;;8.20;99.90;;;;;;5014388;28;20057;-61
2022/03/12 06:13:59;;;;;;;7.30;1.13;;;8.20;99.90;;;;;;5017203;28;20034;-60
2022/03/12 06:16:26;;;;;;;4.53;1.73;;;8.10;99.90;;;;;;5016764;28;20051;-62
2022/03/12 06:18:53;;;;;;;17.00;1.67;;;8.10;99.90;;;;;;5017441;28;20055;-63
2022/03/12 06:21:20;;;;;;;16.15;1.35;;;8.10;99.90;;;;;;5000283;28;20043;-61
2022/03/12 06:23:48;;;;;;;5.57;1.40;;;8.10;99.90;;;;;;5020633;28;20034;-61
2022/03/12 06:26:15;;;;;;;10.38;1.27;;;8.10;99.90;;;;;;5017048;28;20042;-61
2022/03/12 06:28:43;;;;;;;13.60;1.75;;;8.10;99.90;;;;;;5022787;28;20030;-62
2022/03/12 06:31:12;;;;;;;7.43;1.80;;;8.10;99.90;;;;;;5017030;28;20066;-61
2022/03/12 06:33:40;;;;;;;13.38;1.40;;;8.00;99.90;;;;;;5017073;28;20038;-62
2022/03/12 06:36:09;;;;;;;10.38;1.90;;;8.00;99.90;;;;;;5016542;28;20030;-62
2022/03/12 06:38:37;;;;;;;25.45;2.60;;;8.00;99.90;;;;;;5026034;28;20042;-63
2022/03/12 06:41:04;;;;;;;9.82;1.25;;;8.00;99.90;;;;;;5016482;28;20034;-62
2022/03/12 06:43:32;;;;;;;19.17;3.85;;;8.00;99.90;;;;;;5000122;28;20041;-63
2022/03/12 06:46:01;;;;;;;13.32;1.63;;;7.90;99.90;;;;;;5015909;28;20026;-60
2022/03/12 06:48:32;;;;;;;7.90;1.17;;;8.00;99.90;;;;;;5016389;28;20019;-60
2022/03/12 06:50:59;;;;;;;13.75;1.60;;;8.00;99.90;;;;;;5021332;28;20031;-59
2022/03/12 06:53:26;;;;;;;18.83;2.17;;;8.00;99.90;;;;;;5016464;28;20031;-60
2022/03/12 06:55:53;;;;;;;12.57;1.75;;;8.00;99.90;;;;;;5015880;28;20031;-61
2022/03/12 06:58:23;;;;;;;11.95;1.77;;;8.10;99.90;;;;;;4997869;28;20046;-60
2022/03/12 07:00:50;;;;;;;17.27;1.83;;;8.10;99.90;;;;;;4997972;28;20365;-61
2022/03/12 07:03:17;;;;;;;16.65;2.38;;;8.10;99.90;;;;;;5013373;28;20061;-61
2022/03/12 07:05:44;;;;;;;18.75;3.78;;;8.10;99.90;;;;;;5015367;28;20030;-62
2022/03/12 07:08:10;;;;;;;17.65;2.08;;;8.10;99.90;;;;;;5014665;28;20099;-60
2022/03/12 07:10:37;;;;;;;17.65;2.03;;;8.10;99.90;;;;;;5014621;28;20030;-61
2022/03/12 07:13:04;;;;;;;11.65;1.73;;;8.00;99.90;;;;;;4997776;28;20037;-60
2022/03/12 07:15:31;;;;;;;10.88;2.15;;;8.10;99.90;;;;;;5015458;28;20030;-61
2022/03/12 07:17:58;;;;;;;21.33;4.15;;;8.10;99.90;;;;;;4994733;28;20046;-62
2022/03/12 07:20:24;;;;;;;18.95;2.20;;;8.10;99.90;;;;;;5015108;28;20089;-62
2022/03/12 07:22:51;;;;;;;16.90;3.20;;;8.10;99.90;;;;;;5013745;28;20038;-62
2022/03/12 07:25:18;;;;;;;13.27;2.90;;;8.20;99.90;;;;;;4999035;28;20034;-62
2022/03/12 07:27:45;;;;;;;15.73;2.25;;;8.20;99.90;;;;;;5015744;28;20030;-60
2022/03/12 07:30:14;;;;;;;19.30;2.22;;;8.30;99.90;;;;;;5013453;28;20030;-60
2022/03/12 07:32:42;;;;;;;11.50;2.00;;;8.30;99.90;;;;;;5006329;28;20061;-61
2022/03/12 07:35:11;;;;;;;14.27;2.35;;;8.40;99.90;;;;;;4990369;28;20034;-62
2022/03/12 07:37:38;;;;;;;13.75;2.40;;;8.50;99.90;;;;;;5006630;28;20053;-62
2022/03/12 07:40:06;;;;;;;15.00;2.50;;;8.50;99.90;;;;;;5005956;28;20033;-63
2022/03/12 07:42:33;;;;;;;12.93;2.00;;;8.60;99.90;;;;;;5013306;28;20034;-61
2022/03/12 07:45:00;;;;;;;16.75;2.63;;;8.70;99.90;;;;;;4994889;28;20027;-62
2022/03/12 07:47:27;;;;;;;11.43;1.80;;;8.70;99.90;;;;;;5016255;28;20054;-62
2022/03/12 07:49:54;;;;;;;12.05;2.17;;;8.70;99.90;;;;;;5015385;28;20054;-62
2022/03/12 07:52:20;;;;;;;22.55;2.20;;;8.70;99.90;;;;;;5016199;28;20035;-61
2022/03/12 07:54:47;;;;;;;16.23;1.95;;;8.80;99.90;;;;;;4998800;28;20042;-61
2022/03/12 07:57:14;;;;;;;15.80;2.38;;;8.80;99.90;;;;;;5013494;28;20104;-62
2022/03/12 07:59:41;;;;;;;20.13;1.77;;;8.80;99.90;;;;;;4674922;28;10000610;-60
2022/03/12 08:02:08;;;;;;;16.08;2.78;;;8.90;99.90;;;;;;4996373;28;20065;-62
2022/03/12 08:04:35;;;;;;;9.70;2.30;;;8.90;99.90;;;;;;5012902;28;20137;-61
2022/03/12 08:07:02;;;;;;;10.05;2.40;;;9.00;99.90;;;;;;5013027;28;20034;-61
2022/03/12 08:09:32;;;;;;;10.65;2.20;;;9.00;99.90;;;;;;5012138;28;20038;-61
2022/03/12 08:12:00;;;;;;;13.60;3.83;;;9.10;99.90;;;;;;5013576;28;20062;-62
2022/03/12 08:14:27;;;;;;;13.63;1.83;;;9.10;99.90;;;;;;5012672;28;20066;-63
2022/03/12 08:16:53;;;;;;;7.40;1.95;;;9.10;99.90;;;;;;5009200;28;20075;-62
2022/03/12 08:19:20;;;;;;;22.55;3.55;;;9.20;99.90;;;;;;5012795;28;20069;-63
2022/03/12 08:21:49;;;;;;;15.82;2.50;;;9.20;99.90;;;;;;5012587;28;20066;-61
2022/03/12 08:24:16;;;;;;;17.23;3.13;;;9.20;99.90;;;;;;4995810;28;20081;-62
2022/03/12 08:26:43;;;;;;;15.32;2.20;;;9.20;99.90;;;;;;5012889;28;20031;-61
2022/03/12 08:29:10;;;;;;;14.55;2.95;;;9.20;99.90;;;;;;4979731;28;20061;-61
2022/03/12 08:31:38;;;;;;;19.95;2.58;;;9.20;99.90;;;;;;5012517;28;20045;-60
2022/03/12 08:34:05;;;;;;;17.80;2.47;;;9.20;99.90;;;;;;5011915;28;20048;-61
2022/03/12 08:36:32;;;;;;;19.20;2.20;;;9.30;99.90;;;;;;5014987;28;20042;-61
2022/03/12 08:38:59;;;;;;;16.30;3.42;;;9.30;99.90;;;;;;5016005;28;20031;-61
2022/03/12 08:41:26;;;;;;;19.13;2.78;;;9.30;99.90;;;;;;5015793;28;20097;-61
2022/03/12 08:43:53;;;;;;;18.85;3.58;;;9.20;99.90;;;;;;5015963;28;20032;-62
2022/03/12 08:46:19;;;;;;;9.80;2.28;;;9.30;99.90;;;;;;5017190;28;20054;-61
2022/03/12 08:48:49;;;;;;;19.67;2.13;;;9.30;99.90;;;;;;5005734;28;20049;-62
2022/03/12 08:51:16;;;;;;;7.85;2.20;;;9.40;99.90;;;;;;5014929;28;20022;-61
2022/03/12 08:53:43;;;;;;;18.52;3.42;;;9.40;99.90;;;;;;5009463;28;20102;-61
2022/03/12 08:56:10;;;;;;;14.38;2.45;;;9.50;99.90;;;;;;5003000;28;20034;-61
2022/03/12 08:58:37;;;;;;;14.07;2.17;;;9.60;99.90;;;;;;5015446;28;20030;-60
2022/03/12 09:01:06;;;;;;;22.48;2.75;;;9.70;99.90;;;;;;5006162;28;20038;-60
2022/03/12 09:03:34;;;;;;;18.73;2.88;;;9.80;99.90;;;;;;5006849;28;20065;-61
2022/03/12 09:06:02;;;;;;;23.98;3.70;;;9.70;99.90;;;;;;4998972;28;20030;-63
2022/03/12 09:08:29;;;;;;;22.10;2.53;;;9.80;99.90;;;;;;5016507;28;20040;-61
2022/03/12 09:10:56;;;;;;;8.57;2.35;;;9.80;99.90;;;;;;4999440;28;20078;-62
2022/03/12 09:13:23;;;;;;;13.95;2.78;;;9.90;99.90;;;;;;5016272;28;20030;-61
2022/03/12 09:15:51;;;;;;;20.02;2.85;;;10.10;99.90;;;;;;5016086;28;20031;-61
2022/03/12 09:18:18;;;;;;;17.00;2.83;;;10.40;99.90;;;;;;5013688;28;20066;-61
2022/03/12 09:20:48;;;;;;;12.38;2.45;;;10.40;99.90;;;;;;4975571;28;20093;-60
2022/03/12 09:23:17;;;;;;;23.23;2.80;;;10.40;99.90;;;;;;4994772;28;20046;-61
2022/03/12 09:25:45;;;;;;;18.63;2.03;;;10.30;99.90;;;;;;5031076;28;20056;-61
2022/03/12 09:28:13;;;;;;;12.70;2.20;;;10.30;99.90;;;;;;5013630;28;20046;-61
2022/03/12 09:30:40;;;;;;;13.48;2.78;;;10.30;99.90;;;;;;5015882;28;20118;-61
2022/03/12 09:33:07;;;;;;;12.27;2.20;;;10.20;99.90;;;;;;5015421;28;20077;-60
2022/03/12 09:35:34;;;;;;;10.98;2.55;;;10.20;99.90;;;;;;5016163;28;20057;-60
2022/03/12 09:38:01;;;;;;;11.13;2.35;;;10.10;99.90;;;;;;5016263;28;20034;-60
2022/03/12 09:40:29;;;;;;;19.23;5.07;;;10.10;99.90;;;;;;5030941;28;20048;-61
2022/03/12 09:42:56;;;;;;;21.27;3.00;;;10.20;99.90;;;;;;5022853;28;20046;-61
2022/03/12 09:45:23;;;;;;;13.75;1.83;;;10.10;99.90;;;;;;5014386;28;20034;-62
2022/03/12 09:47:50;;;;;;;10.43;2.15;;;10.10;99.90;;;;;;5022049;28;20041;-61
2022/03/12 09:50:17;;;;;;;26.10;3.08;;;10.10;99.90;;;;;;5014310;28;20069;-60
2022/03/12 09:52:44;;;;;;;14.95;2.20;;;10.20;99.90;;;;;;5014276;28;20026;-59
2022/03/12 09:55:11;;;;;;;16.05;3.45;;;10.30;99.90;;;;;;5013677;28;20026;-61
2022/03/12 09:57:43;;;;;;;12.13;2.88;;;10.40;99.90;;;;;;5000650;28;20061;-61
2022/03/12 10:00:11;;;;;;;27.27;3.15;;;10.50;99.90;;;;;;5013333;28;20034;-62
2022/03/12 10:02:38;;;;;;;15.60;2.17;;;10.60;99.90;;;;;;4997909;28;20026;-60
2022/03/12 10:05:05;;;;;;;17.00;2.97;;;10.80;99.90;;;;;;5015047;28;20026;-61
2022/03/12 10:07:32;;;;;;;9.48;2.28;;;10.90;99.90;;;;;;5013973;28;20057;-60
2022/03/12 10:10:01;;;;;;;14.20;1.92;;;11.00;99.90;;;;;;4998714;28;20034;-61
2022/03/12 10:12:28;;;;;;;13.48;2.03;;;11.00;99.90;;;;;;5015484;28;20034;-62
2022/03/12 10:14:58;;;;;;;10.07;2.22;;;11.00;99.90;;;;;;5015477;28;20065;-61
2022/03/12 10:17:24;;;;;;;20.08;2.25;;;10.90;99.90;;;;;;5015352;28;20065;-61
2022/03/12 10:19:51;;;;;;;13.52;3.72;;;10.90;99.90;;;;;;4997951;28;20057;-61
2022/03/12 10:22:19;;;;;;;14.98;2.00;;;10.80;99.90;;;;;;5015217;28;20102;-62
2022/03/12 10:24:45;;;;;;;17.10;2.53;;;10.80;99.90;;;;;;5015470;28;20077;-60
2022/03/12 10:27:12;;;;;;;14.98;2.80;;;10.80;99.90;;;;;;5015266;28;20038;-61
2022/03/12 10:29:39;;;;;;;10.75;1.92;;;10.80;99.90;;;;;;5015305;28;20046;-61
2022/03/12 10:32:29;;;;;;;14.65;2.30;;;10.80;99.90;;;;;;5014800;28;20046;-63
2022/03/12 10:34:59;;;;;;;15.15;2.55;;;10.70;99.90;;;;;;5014492;28;20061;-62
2022/03/12 10:37:28;;;;;;;14.68;3.75;;;10.70;99.90;;;;;;5015201;28;20043;-60
2022/03/12 10:40:07;;;;;;;7.97;2.40;;;10.70;99.90;;;;;;5013852;28;20114;-60
2022/03/12 10:42:34;;;;;;;11.70;2.47;;;10.70;99.90;;;;;;5014502;28;20106;-61
2022/03/12 10:45:12;;;;;;;10.77;1.83;;;10.70;99.90;;;;;;5014830;28;20039;-60
2022/03/12 10:47:54;;;;;;;15.80;3.15;;;10.60;99.90;;;;;;4998025;28;20061;-61
2022/03/12 10:50:22;;;;;;;9.95;1.75;;;10.60;99.90;;;;;;4997891;28;20034;-63
2022/03/12 10:52:50;;;;;;;12.95;2.97;;;10.50;99.90;;;;;;4998534;28;20099;-62
2022/03/12 10:55:29;;;;;;;9.48;2.75;;;10.50;99.90;;;;;;5014644;28;20057;-61
2022/03/12 10:58:01;;;;;;;13.43;2.33;;;10.50;99.90;;;;;;4997525;28;20050;-62
2022/03/12 11:00:48;;;;;;;12.45;4.07;;;10.50;99.90;;;;;;5014710;28;20066;-62
2022/03/12 11:03:20;;;;;;;6.47;1.55;;;10.50;99.90;;;;;;5015113;28;20049;-62
2022/03/12 11:05:49;;;;;;;11.75;2.33;;;10.60;99.90;;;;;;5014211;28;20211;-60
2022/03/12 11:08:32;;;;;;;12.63;2.13;;;10.70;99.90;;;;;;4997715;28;20050;-60
2022/03/12 11:11:11;;;;;;;11.43;2.17;;;10.70;99.90;;;;;;5014373;28;20034;-58
2022/03/12 11:13:47;;;;;;;11.32;1.77;;;10.80;99.90;;;;;;5014359;28;20067;-60
2022/03/12 11:16:28;;;;;;;16.23;2.78;;;11.00;99.90;;;;;;5014139;28;20065;-62
2022/03/12 11:19:01;;;;;;;15.68;3.17;;;11.10;99.90;;;;;;5013113;28;20034;-61
2022/03/12 11:21:40;;;;;;;11.07;3.17;;;11.10;99.90;;;;;;5012965;28;20054;-61
2022/03/12 11:24:13;;;;;;;13.93;3.10;;;11.20;99.90;;;;;;5013432;28;20065;-61
2022/03/12 11:26:51;;;;;;;11.85;3.72;;;11.30;99.90;;;;;;5013574;28;20038;-61
2022/03/12 11:29:22;;;;;;;8.23;1.80;;;11.20;99.90;;;;;;5012148;28;20038;-61
2022/03/12 11:31:51;;;;;;;8.57;2.40;;;11.10;99.90;;;;;;5013034;28;20103;-62
2022/03/12 11:34:22;;;;;;;8.00;2.03;;;11.30;99.90;;;;;;5013628;28;20034;-60
2022/03/12 11:36:59;;;;;;;14.02;2.83;;;11.40;99.90;;;;;;5013563;28;20030;-60
2022/03/12 11:39:27;;;;;;;16.10;4.30;;;11.40;99.90;;;;;;5013439;28;20073;-63
2022/03/12 11:42:20;;;;;;;18.13;6.03;;;11.50;99.90;;;;;;5012915;28;20058;-61
2022/03/12 11:44:51;;;;;;;18.48;6.22;;;11.70;99.90;;;;;;5012277;28;20066;-61
2022/03/12 11:47:38;;;;;;;12.10;4.05;;;11.70;99.90;;;;;;5012737;28;20030;-60
2022/03/12 11:50:08;;;;;;;13.45;2.53;;;11.80;99.90;;;;;;5012155;28;20147;-60
2022/03/12 11:52:36;;;;;;;15.00;3.55;;;11.90;99.90;;;;;;5013241;28;20050;-62
2022/03/12 11:55:03;;;;;;;13.38;2.70;;;11.90;99.90;;;;;;4996756;28;20053;-61
2022/03/12 11:57:31;;;;;;;16.48;2.83;;;11.90;99.90;;;;;;5022639;28;20042;-61
2022/03/12 11:59:59;;;;;;;16.73;3.08;;;11.90;99.90;;;;;;4996371;28;20081;-60
2022/03/12 12:02:29;;;;;;;13.48;2.38;;;11.90;99.50;;;;;;5025311;28;20046;-59
2022/03/12 12:05:03;;;;;;;12.43;2.80;;;11.90;99.20;;;;;;5013291;28;20054;-62
2022/03/12 12:07:34;;;;;;;12.75;3.30;;;12.00;99.60;;;;;;5012748;28;20085;-61
2022/03/12 12:10:00;;;;;;;16.00;4.55;;;12.00;98.80;;;;;;4996822;28;20042;-60
2022/03/12 12:12:35;;;;;;;15.07;2.15;;;12.00;99.40;;;;;;5003842;28;20035;-59
2022/03/12 12:15:04;;;;;;;14.18;2.15;;;12.10;99.90;;;;;;5007150;28;20061;-61
2022/03/12 12:17:32;;;;;;;10.25;3.22;;;12.10;99.30;;;;;;5015435;28;20034;-61
2022/03/12 12:20:02;;;;;;;15.98;4.28;;;12.10;99.90;;;;;;5015933;28;20043;-60
2022/03/12 12:22:29;;;;;;;10.82;2.45;;;12.20;99.90;;;;;;4999614;28;20047;-62
2022/03/12 12:24:56;;;;;;;11.45;2.78;;;12.30;99.20;;;;;;4999498;28;20080;-61
2022/03/12 12:27:23;;;;;;;11.20;2.45;;;12.30;99.90;;;;;;4999477;28;20242;-61
2022/03/12 12:29:54;;;;;;;13.57;2.50;;;12.30;99.80;;;;;;4999027;28;20030;-60
2022/03/12 12:32:23;;;;;;;11.50;1.92;;;12.30;98.20;;;;;;4998899;28;20034;-61
2022/03/12 12:34:59;;;;;;;11.55;1.98;;;12.30;98.60;;;;;;5022033;28;20065;-60
2022/03/12 12:37:44;;;;;;;8.05;1.98;;;12.20;98.30;;;;;;5016434;28;20038;-61
2022/03/12 12:40:29;;;;;;;6.15;1.95;;;12.20;98.00;;;;;;5016382;28;20038;-61
2022/03/12 12:42:57;;;;;;;10.50;2.35;;;12.30;98.80;;;;;;5016510;28;20077;-61
2022/03/12 12:45:26;;;;;;;12.18;2.00;;;12.30;99.30;;;;;;5016232;28;20026;-61
2022/03/12 12:48:07;;;;;;;15.52;2.60;;;12.40;98.50;;;;;;5016490;28;20031;-61
2022/03/12 12:50:34;;;;;;;16.48;2.17;;;12.50;98.80;;;;;;5014695;28;20035;-61
2022/03/12 12:53:28;;;;;;;9.98;1.40;;;12.60;99.00;;;;;;5032159;28;20041;-61
2022/03/12 12:56:18;;;;;;;11.77;1.77;;;12.60;96.30;;;;;;5014113;28;20064;-58
2022/03/12 12:59:12;;;;;;;9.32;3.58;;;12.70;96.50;;;;;;4995571;28;20062;-62